createdAt,value
2022-09-11T00:00:09.899Z,100.00
2022-09-11T00:02:39.776Z,100.00
2022-09-11T00:05:10.478Z,100.00
2022-09-11T00:07:39.491Z,100.00
2022-09-11T00:10:09.798Z,100.00
2022-09-11T00:12:38.183Z,100.00
2022-09-11T00:15:09.187Z,100.00
2022-09-11T00:17:39.132Z,100.00
2022-09-11T00:20:08.368Z,100.00
2022-09-11T00:22:37.418Z,100.00
2022-09-11T00:25:07.849Z,100.00
2022-09-11T00:27:37.289Z,100.00
2022-09-11T00:30:06.799Z,100.00
2022-09-11T00:32:35.831Z,100.00
2022-09-11T00:35:06.744Z,100.00
2022-09-11T00:37:35.190Z,100.00
2022-09-11T00:40:05.392Z,100.00
2022-09-11T00:42:33.891Z,100.00
2022-09-11T00:45:07.786Z,100.00
2022-09-11T00:47:37.743Z,100.00
2022-09-11T00:50:19.443Z,100.00
2022-09-11T00:52:55.598Z,100.00
2022-09-11T00:55:33.316Z,100.00
2022-09-11T00:58:07.688Z,100.00
2022-09-11T01:00:37.190Z,100.00
2022-09-11T01:03:06.001Z,100.00
2022-09-11T01:05:41.844Z,100.00
2022-09-11T01:08:11.407Z,100.00
2022-09-11T01:10:57.680Z,100.00
2022-09-11T01:13:38.970Z,100.00
2022-09-11T01:16:23.300Z,100.00
2022-09-11T01:19:02.198Z,100.00
2022-09-11T01:22:01.763Z,100.00
2022-09-11T01:24:57.402Z,100.00
2022-09-11T01:27:45.912Z,100.00
2022-09-11T01:30:19.343Z,100.00
2022-09-11T01:33:15.552Z,100.00
2022-09-11T01:36:00.431Z,100.00
2022-09-11T01:38:38.577Z,100.00
2022-09-11T01:41:14.978Z,100.00
2022-09-11T01:43:52.587Z,100.00
2022-09-11T01:46:26.879Z,100.00
2022-09-11T01:49:06.713Z,100.00
2022-09-11T01:51:39.143Z,100.00
2022-09-11T01:54:17.084Z,100.00
2022-09-11T01:56:55.503Z,100.00
2022-09-11T01:59:37.007Z,100.00
2022-09-11T02:02:13.501Z,100.00
2022-09-11T02:04:50.252Z,100.00
2022-09-11T02:07:26.196Z,100.00
2022-09-11T02:10:01.434Z,100.00
2022-09-11T02:12:41.456Z,100.00
2022-09-11T02:15:15.910Z,100.00
2022-09-11T02:17:54.252Z,100.00
2022-09-11T02:20:23.962Z,100.00
2022-09-11T02:22:53.756Z,100.00
2022-09-11T02:25:23.759Z,100.00
2022-09-11T02:27:52.920Z,100.00
2022-09-11T02:30:23.418Z,100.00
2022-09-11T02:32:51.835Z,100.00
2022-09-11T02:35:20.573Z,100.00
2022-09-11T02:38:04.393Z,100.00
2022-09-11T02:40:51.582Z,100.00
2022-09-11T02:43:44.253Z,100.00
2022-09-11T02:46:45.001Z,100.00
2022-09-11T02:49:27.979Z,100.00
2022-09-11T02:52:06.386Z,100.00
2022-09-11T02:54:52.052Z,100.00
2022-09-11T02:57:30.852Z,100.00
2022-09-11T03:00:03.643Z,100.00
2022-09-11T03:02:40.553Z,100.00
2022-09-11T03:05:11.396Z,100.00
2022-09-11T03:07:39.917Z,100.00
2022-09-11T03:10:11.263Z,100.00
2022-09-11T03:12:42.415Z,100.00
2022-09-11T03:15:12.830Z,100.00
2022-09-11T03:17:44.400Z,100.00
2022-09-11T03:20:13.378Z,100.00
2022-09-11T03:22:43.445Z,100.00
2022-09-11T03:25:12.553Z,100.00
2022-09-11T03:27:42.217Z,100.00
2022-09-11T03:30:12.225Z,100.00
2022-09-11T03:32:42.088Z,100.00
2022-09-11T03:35:13.007Z,100.00
2022-09-11T03:37:41.404Z,100.00
2022-09-11T03:40:11.776Z,100.00
2022-09-11T03:42:40.846Z,100.00
2022-09-11T03:45:12.122Z,100.00
2022-09-11T03:47:42.754Z,100.00
2022-09-11T03:50:12.462Z,100.00
2022-09-11T03:52:41.034Z,100.00
2022-09-11T03:55:11.083Z,100.00
2022-09-11T03:57:40.627Z,100.00
2022-09-11T04:00:11.300Z,100.00
2022-09-11T04:02:42.169Z,100.00
2022-09-11T04:05:11.969Z,100.00
2022-09-11T04:07:40.490Z,100.00
2022-09-11T04:10:09.908Z,100.00
2022-09-11T04:12:38.954Z,100.00
2022-09-11T04:15:10.959Z,100.00
2022-09-11T04:17:39.465Z,100.00
2022-09-11T04:20:11.766Z,100.00
2022-09-11T04:22:42.634Z,100.00
2022-09-11T04:25:12.478Z,100.00
2022-09-11T04:27:42.624Z,100.00
2022-09-11T04:30:12.969Z,100.00
2022-09-11T04:32:41.383Z,100.00
2022-09-11T04:35:12.590Z,100.00
2022-09-11T04:37:41.039Z,100.00
2022-09-11T04:40:12.596Z,100.00
2022-09-11T04:42:42.522Z,100.00
2022-09-11T04:45:13.230Z,100.00
2022-09-11T04:47:42.195Z,100.00
2022-09-11T04:50:12.890Z,100.00
2022-09-11T04:52:41.383Z,100.00
2022-09-11T04:55:12.704Z,100.00
2022-09-11T04:57:41.586Z,100.00
2022-09-11T05:00:12.125Z,100.00
2022-09-11T05:02:42.891Z,100.00
2022-09-11T05:05:13.727Z,100.00
2022-09-11T05:07:46.244Z,100.00
2022-09-11T05:10:16.341Z,100.00
2022-09-11T05:12:45.652Z,100.00
2022-09-11T05:15:16.591Z,100.00
2022-09-11T05:17:45.291Z,100.00
2022-09-11T05:20:18.796Z,100.00
2022-09-11T05:22:49.813Z,100.00
2022-09-11T05:25:19.679Z,100.00
2022-09-11T05:27:49.452Z,100.00
2022-09-11T05:30:21.089Z,100.00
2022-09-11T05:32:55.169Z,100.00
2022-09-11T05:35:32.265Z,100.00
2022-09-11T05:38:01.262Z,100.00
2022-09-11T05:40:30.335Z,100.00
2022-09-11T05:42:58.796Z,100.00
2022-09-11T05:45:27.943Z,100.00
2022-09-11T05:47:58.018Z,100.00
2022-09-11T05:50:29.116Z,100.00
2022-09-11T05:52:57.521Z,100.00
2022-09-11T05:55:26.492Z,100.00
2022-09-11T05:57:55.856Z,100.00
2022-09-11T06:00:25.531Z,100.00
2022-09-11T06:02:56.231Z,100.00
2022-09-11T06:05:25.269Z,100.00
2022-09-11T06:07:55.617Z,100.00
2022-09-11T06:10:24.008Z,100.00
2022-09-11T06:12:53.206Z,100.00
2022-09-11T06:15:45.158Z,100.00
2022-09-11T06:18:11.600Z,100.00
2022-09-11T06:20:41.148Z,100.00
2022-09-11T06:23:13.078Z,100.00
2022-09-11T06:25:41.500Z,100.00
2022-09-11T06:28:09.966Z,100.00
2022-09-11T06:30:38.421Z,100.00
2022-09-11T06:33:09.996Z,100.00
2022-09-11T06:35:38.470Z,100.00
2022-09-11T06:38:06.917Z,100.00
2022-09-11T06:40:38.868Z,100.00
2022-09-11T06:43:07.427Z,100.00
2022-09-11T06:45:35.894Z,100.00
2022-09-11T06:48:04.766Z,100.00
2022-09-11T06:50:40.269Z,100.00
2022-09-11T06:53:09.501Z,100.00
2022-09-11T06:55:41.330Z,100.00
2022-09-11T06:58:10.369Z,100.00
2022-09-11T07:00:38.967Z,100.00
2022-09-11T07:03:07.514Z,100.00
2022-09-11T07:05:35.980Z,100.00
2022-09-11T07:08:06.101Z,100.00
2022-09-11T07:10:35.587Z,100.00
2022-09-11T07:13:06.074Z,100.00
2022-09-11T07:15:34.598Z,100.00
2022-09-11T07:18:03.314Z,100.00
2022-09-11T07:20:31.942Z,100.00
2022-09-11T07:23:01.258Z,100.00
2022-09-11T07:25:30.258Z,100.00
2022-09-11T07:27:59.485Z,100.00
2022-09-11T07:30:29.480Z,100.00
2022-09-11T07:32:58.158Z,100.00
2022-09-11T07:35:26.929Z,100.00
2022-09-11T07:37:55.723Z,100.00
2022-09-11T07:40:24.842Z,100.00
2022-09-11T07:42:53.530Z,100.00
2022-09-11T07:45:23.055Z,100.00
2022-09-11T07:47:53.058Z,100.00
2022-09-11T07:50:21.811Z,100.00
2022-09-11T07:52:50.422Z,100.00
2022-09-11T07:55:19.097Z,100.00
2022-09-11T07:57:47.803Z,100.00
2022-09-11T08:00:17.387Z,100.00
2022-09-11T08:02:45.892Z,100.00
2022-09-11T08:05:15.921Z,100.00
2022-09-11T08:07:44.545Z,100.00
2022-09-11T08:10:27.953Z,100.00
2022-09-11T08:12:59.753Z,100.00
2022-09-11T08:15:28.814Z,100.00
2022-09-11T08:17:57.321Z,100.00
2022-09-11T08:20:27.209Z,100.00
2022-09-11T08:22:58.012Z,100.00
2022-09-11T08:25:27.765Z,100.00
2022-09-11T08:27:57.257Z,100.00
2022-09-11T08:30:25.757Z,100.00
2022-09-11T08:32:54.255Z,100.00
2022-09-11T08:35:22.803Z,100.00
2022-09-11T08:37:55.071Z,100.00
2022-09-11T08:40:24.434Z,100.00
2022-09-11T08:42:53.686Z,100.00
2022-09-11T08:45:26.348Z,100.00
2022-09-11T08:47:58.557Z,100.00
2022-09-11T08:50:37.160Z,100.00
2022-09-11T08:53:12.848Z,100.00
2022-09-11T08:55:48.202Z,100.00
2022-09-11T08:58:30.908Z,100.00
2022-09-11T09:01:14.817Z,100.00
2022-09-11T09:04:20.599Z,100.00
2022-09-11T09:07:04.933Z,100.00
2022-09-11T09:09:50.027Z,100.00
2022-09-11T09:12:32.577Z,100.00
2022-09-11T09:15:35.316Z,100.00
2022-09-11T09:18:14.090Z,100.00
2022-09-11T09:20:51.172Z,100.00
2022-09-11T09:23:24.969Z,100.00
2022-09-11T09:25:57.935Z,100.00
2022-09-11T09:28:36.087Z,100.00
2022-09-11T09:31:11.421Z,100.00
2022-09-11T09:33:51.265Z,100.00
2022-09-11T09:36:25.600Z,100.00
2022-09-11T09:38:54.918Z,100.00
2022-09-11T09:42:01.571Z,100.00
2022-09-11T09:44:55.053Z,100.00
2022-09-11T09:47:24.590Z,100.00
2022-09-11T09:49:53.458Z,100.00
2022-09-11T09:52:26.202Z,100.00
2022-09-11T09:55:00.411Z,100.00
2022-09-11T09:57:35.735Z,100.00
2022-09-11T10:00:15.897Z,100.00
2022-09-11T10:02:49.257Z,100.00
2022-09-11T10:05:25.240Z,100.00
2022-09-11T10:07:56.882Z,100.00
2022-09-11T10:10:34.951Z,100.00
2022-09-11T10:13:19.776Z,100.00
2022-09-11T10:15:51.046Z,100.00
2022-09-11T10:18:37.725Z,100.00
2022-09-11T10:21:22.940Z,100.00
2022-09-11T10:23:56.408Z,100.00
2022-09-11T10:26:32.655Z,100.00
2022-09-11T10:29:14.160Z,100.00
2022-09-11T10:31:50.641Z,100.00
2022-09-11T10:34:23.242Z,100.00
2022-09-11T10:36:56.767Z,100.00
2022-09-11T10:39:28.517Z,100.00
2022-09-11T10:42:05.502Z,100.00
2022-09-11T10:44:37.092Z,100.00
2022-09-11T10:47:17.456Z,100.00
2022-09-11T10:49:48.778Z,100.00
2022-09-11T10:52:22.934Z,100.00
2022-09-11T10:55:08.737Z,100.00
2022-09-11T10:57:46.267Z,100.00
2022-09-11T11:00:21.361Z,100.00
2022-09-11T11:02:55.001Z,100.00
2022-09-11T11:05:31.579Z,100.00
2022-09-11T11:08:23.992Z,100.00
2022-09-11T11:11:18.132Z,100.00
2022-09-11T11:14:07.898Z,100.00
2022-09-11T11:16:53.489Z,100.00
2022-09-11T11:20:03.568Z,100.00
2022-09-11T11:22:58.383Z,100.00
2022-09-11T11:25:37.313Z,100.00
2022-09-11T11:28:37.121Z,100.00
2022-09-11T11:31:33.757Z,100.00
2022-09-11T11:34:25.616Z,100.00
2022-09-11T11:37:06.032Z,100.00
2022-09-11T11:39:44.994Z,100.00
2022-09-11T11:42:24.244Z,100.00
2022-09-11T11:44:58.543Z,100.00
2022-09-11T11:47:34.502Z,100.00
2022-09-11T11:50:15.060Z,100.00
2022-09-11T11:52:57.987Z,100.00
2022-09-11T11:55:33.744Z,100.00
2022-09-11T11:58:13.670Z,100.00
2022-09-11T12:00:55.277Z,100.00
2022-09-11T12:03:31.094Z,100.00
2022-09-11T12:06:01.224Z,100.00
2022-09-11T12:08:30.240Z,100.00
2022-09-11T12:11:04.777Z,100.00
2022-09-11T12:13:38.545Z,100.00
2022-09-11T12:16:18.217Z,100.00
2022-09-11T12:19:06.418Z,100.00
2022-09-11T12:22:04.327Z,100.00
2022-09-11T12:24:58.957Z,100.00
2022-09-11T12:28:10.814Z,100.00
2022-09-11T12:30:59.952Z,100.00
2022-09-11T12:33:57.792Z,100.00
2022-09-11T12:36:53.916Z,100.00
2022-09-11T12:39:34.239Z,100.00
2022-09-11T12:42:59.261Z,99.65
2022-09-11T12:45:35.922Z,100.00
2022-09-11T12:48:12.881Z,100.00
2022-09-11T12:50:50.632Z,100.00
2022-09-11T12:53:27.609Z,100.00
2022-09-11T12:56:02.343Z,100.00
2022-09-11T12:58:38.754Z,100.00
2022-09-11T13:01:21.555Z,100.00
2022-09-11T13:04:01.094Z,100.00
2022-09-11T13:06:42.782Z,100.00
2022-09-11T13:09:24.023Z,100.00
2022-09-11T13:11:55.753Z,100.00
2022-09-11T13:14:49.185Z,100.00
2022-09-11T13:17:30.756Z,100.00
2022-09-11T13:20:23.151Z,100.00
2022-09-11T13:22:58.192Z,100.00
2022-09-11T13:25:31.627Z,93.85
2022-09-11T13:28:03.477Z,93.26
2022-09-11T13:30:32.833Z,94.59
2022-09-11T13:33:09.000Z,95.58
2022-09-11T13:35:40.549Z,94.77
2022-09-11T13:38:14.840Z,98.51
2022-09-11T13:40:50.432Z,93.88
2022-09-11T13:43:25.573Z,96.53
2022-09-11T13:46:21.243Z,93.96
2022-09-11T13:48:54.118Z,93.19
2022-09-11T13:51:27.597Z,72.21
2022-09-11T13:54:05.988Z,70.67
2022-09-11T13:57:06.623Z,70.18
2022-09-11T13:59:40.482Z,70.24
2022-09-11T14:02:48.524Z,69.21
2022-09-11T14:05:22.470Z,73.60
2022-09-11T14:08:01.601Z,78.77
2022-09-11T14:10:34.252Z,80.62
2022-09-11T14:13:16.286Z,73.72
2022-09-11T14:15:54.252Z,77.38
2022-09-11T14:18:33.312Z,74.10
2022-09-11T14:21:06.838Z,71.84
2022-09-11T14:23:45.021Z,73.49
2022-09-11T14:26:19.155Z,69.79
2022-09-11T14:29:04.232Z,71.65
2022-09-11T14:31:38.074Z,72.46
2022-09-11T14:34:23.147Z,72.36
2022-09-11T14:36:57.672Z,70.32
2022-09-11T14:39:37.745Z,73.57
2022-09-11T14:42:09.887Z,70.13
2022-09-11T14:44:42.728Z,73.74
2022-09-11T14:47:17.287Z,72.54
2022-09-11T14:49:46.670Z,71.47
2022-09-11T14:52:17.593Z,66.67
2022-09-11T14:54:47.155Z,69.41
2022-09-11T14:57:20.771Z,64.06
2022-09-11T14:59:52.422Z,61.38
2022-09-11T15:02:23.511Z,63.47
2022-09-11T15:04:55.007Z,59.63
2022-09-11T15:07:26.020Z,62.95
2022-09-11T15:09:56.429Z,60.37
2022-09-11T15:12:24.933Z,57.26
2022-09-11T15:14:58.114Z,58.04
2022-09-11T15:17:31.655Z,61.06
2022-09-11T15:20:00.766Z,62.28
2022-09-11T15:22:31.343Z,58.82
2022-09-11T15:25:00.058Z,57.19
2022-09-11T15:27:28.704Z,58.88
2022-09-11T15:29:58.563Z,62.37
2022-09-11T15:32:27.532Z,60.55
2022-09-11T15:34:56.244Z,58.21
2022-09-11T15:37:25.632Z,59.15
2022-09-11T15:39:54.264Z,62.67
2022-09-11T15:42:22.854Z,57.77
2022-09-11T15:44:51.995Z,56.86
2022-09-11T15:47:22.169Z,59.40
2022-09-11T15:49:50.625Z,60.19
2022-09-11T15:52:20.279Z,59.39
2022-09-11T15:54:49.016Z,62.36
2022-09-11T15:57:18.486Z,64.01
2022-09-11T15:59:51.830Z,64.57
2022-09-11T16:02:23.871Z,63.65
2022-09-11T16:04:53.950Z,64.29
2022-09-11T16:07:22.950Z,65.61
2022-09-11T16:09:52.710Z,65.11
2022-09-11T16:12:21.098Z,65.73
2022-09-11T16:14:50.321Z,68.22
2022-09-11T16:17:20.698Z,69.75
2022-09-11T16:19:51.599Z,67.81
2022-09-11T16:22:20.550Z,67.18
2022-09-11T16:24:48.985Z,66.65
2022-09-11T16:27:18.547Z,67.51
2022-09-11T16:32:39.350Z,76.43
2022-09-11T16:35:13.429Z,78.08
2022-09-11T16:37:42.667Z,81.06
2022-09-11T16:40:11.794Z,82.94
2022-09-11T16:42:41.032Z,83.84
2022-09-11T16:45:10.656Z,84.41
2022-09-11T16:47:39.585Z,86.49
2022-09-11T16:50:10.751Z,86.43
2022-09-11T16:52:39.848Z,87.74
2022-09-11T16:55:11.267Z,88.54
2022-09-11T16:57:40.182Z,90.47
2022-09-11T17:00:10.896Z,92.37
2022-09-11T17:02:39.808Z,92.80
2022-09-11T17:05:11.334Z,94.62
2022-09-11T17:07:42.411Z,95.52
2022-09-11T17:10:11.970Z,96.91
2022-09-11T17:12:40.501Z,97.28
2022-09-11T17:15:10.539Z,98.41
2022-09-11T17:17:39.082Z,99.55
2022-09-11T17:20:11.919Z,100.00
2022-09-11T17:22:40.860Z,100.00
2022-09-11T17:25:11.506Z,100.00
2022-09-11T17:27:40.908Z,100.00
2022-09-11T17:30:12.713Z,100.00
2022-09-11T17:32:41.608Z,100.00
2022-09-11T17:35:12.832Z,100.00
2022-09-11T17:37:42.735Z,100.00
2022-09-11T17:40:12.661Z,100.00
2022-09-11T17:42:41.899Z,100.00
2022-09-11T17:45:15.670Z,100.00
2022-09-11T17:47:44.757Z,100.00
2022-09-11T17:50:15.475Z,100.00
2022-09-11T17:52:44.840Z,100.00
2022-09-11T17:55:13.335Z,100.00
2022-09-11T17:57:44.426Z,100.00
2022-09-11T18:00:14.843Z,100.00
2022-09-11T18:02:44.844Z,100.00
2022-09-11T18:05:14.722Z,100.00
2022-09-11T18:07:43.629Z,100.00
2022-09-11T18:10:12.163Z,100.00
2022-09-11T18:12:40.683Z,100.00
2022-09-11T18:15:11.311Z,100.00
2022-09-11T18:17:39.801Z,100.00
2022-09-11T18:20:10.458Z,100.00
2022-09-11T18:22:40.617Z,100.00
2022-09-11T18:25:10.640Z,100.00
2022-09-11T18:27:40.239Z,100.00
2022-09-11T18:30:10.731Z,100.00
2022-09-11T18:32:42.103Z,100.00
2022-09-11T18:35:11.787Z,100.00
2022-09-11T18:37:41.856Z,100.00
2022-09-11T18:40:11.912Z,100.00
2022-09-11T18:42:40.911Z,100.00
2022-09-11T18:45:13.043Z,100.00
2022-09-11T18:47:43.177Z,100.00
2022-09-11T18:50:14.111Z,100.00
2022-09-11T18:52:44.739Z,100.00
2022-09-11T18:55:13.341Z,100.00
2022-09-11T18:57:44.849Z,100.00
2022-09-11T19:00:18.074Z,100.00
2022-09-11T19:02:47.380Z,100.00
2022-09-11T19:05:17.117Z,100.00
2022-09-11T19:07:49.911Z,100.00
2022-09-11T19:10:19.430Z,100.00
2022-09-11T19:12:49.608Z,100.00
2022-09-11T19:15:18.366Z,100.00
2022-09-11T19:17:47.999Z,100.00
2022-09-11T19:20:19.858Z,100.00
2022-09-11T19:22:49.844Z,100.00
2022-09-11T19:25:18.445Z,100.00
2022-09-11T19:27:47.102Z,100.00
2022-09-11T19:30:16.992Z,100.00
2022-09-11T19:32:45.877Z,100.00
2022-09-11T19:35:14.583Z,100.00
2022-09-11T19:37:43.110Z,100.00
2022-09-11T19:40:13.394Z,100.00
2022-09-11T19:42:41.920Z,100.00
2022-09-11T19:45:11.107Z,100.00
2022-09-11T19:47:39.788Z,100.00
2022-09-11T19:50:09.858Z,100.00
2022-09-11T19:52:38.526Z,100.00
2022-09-11T19:55:07.961Z,100.00
2022-09-11T19:57:37.744Z,100.00
2022-09-11T20:00:08.588Z,100.00
2022-09-11T20:02:37.200Z,100.00
2022-09-11T20:05:06.207Z,100.00
2022-09-11T20:07:34.747Z,100.00
2022-09-11T20:10:04.603Z,100.00
2022-09-11T20:12:37.074Z,100.00
2022-09-11T20:15:08.813Z,100.00
2022-09-11T20:17:37.390Z,100.00
2022-09-11T20:20:07.076Z,100.00
2022-09-11T20:22:35.650Z,100.00
2022-09-11T20:25:05.513Z,100.00
2022-09-11T20:27:35.535Z,100.00
2022-09-11T20:30:04.637Z,100.00
2022-09-11T20:32:39.035Z,100.00
2022-09-11T20:35:08.897Z,100.00
2022-09-11T20:37:38.755Z,100.00
2022-09-11T20:40:10.197Z,100.00
2022-09-11T20:42:39.887Z,100.00
2022-09-11T20:45:09.697Z,100.00
2022-09-11T20:47:40.332Z,100.00
2022-09-11T20:50:11.711Z,100.00
2022-09-11T20:52:41.121Z,100.00
2022-09-11T20:55:10.200Z,100.00
2022-09-11T20:57:38.952Z,100.00
2022-09-11T21:00:10.314Z,100.00
2022-09-11T21:02:40.273Z,100.00
2022-09-11T21:05:10.112Z,100.00
2022-09-11T21:07:38.575Z,100.00
2022-09-11T21:10:08.586Z,100.00
2022-09-11T21:12:37.640Z,100.00
2022-09-11T21:15:08.290Z,100.00
2022-09-11T21:17:37.135Z,100.00
2022-09-11T21:20:08.669Z,100.00
2022-09-11T21:22:37.713Z,100.00
2022-09-11T21:25:09.197Z,100.00
2022-09-11T21:27:38.452Z,100.00
2022-09-11T21:30:08.496Z,100.00
2022-09-11T21:32:37.147Z,100.00
2022-09-11T21:35:08.999Z,100.00
2022-09-11T21:37:37.948Z,100.00
2022-09-11T21:40:08.314Z,100.00
2022-09-11T21:42:36.983Z,100.00
2022-09-11T21:45:06.469Z,100.00
2022-09-11T21:47:38.801Z,100.00
2022-09-11T21:50:10.809Z,100.00
2022-09-11T21:52:39.377Z,100.00
2022-09-11T21:55:13.593Z,100.00
2022-09-11T21:57:42.275Z,100.00
2022-09-11T22:00:14.165Z,100.00
2022-09-11T22:02:42.848Z,100.00
2022-09-11T22:05:12.995Z,100.00
2022-09-11T22:07:41.899Z,100.00
2022-09-11T22:10:13.946Z,100.00
2022-09-11T22:12:43.635Z,100.00
2022-09-11T22:15:12.899Z,100.00
2022-09-11T22:17:42.170Z,100.00
2022-09-11T22:20:12.572Z,100.00
2022-09-11T22:22:42.593Z,100.00
2022-09-11T22:25:12.120Z,100.00
2022-09-11T22:27:40.509Z,100.00
2022-09-11T22:30:12.426Z,100.00
2022-09-11T22:32:40.909Z,100.00
2022-09-11T22:35:11.339Z,100.00
2022-09-11T22:37:41.151Z,100.00
2022-09-11T22:40:11.365Z,100.00
2022-09-11T22:42:40.175Z,100.00
2022-09-11T22:45:10.335Z,100.00
2022-09-11T22:47:40.084Z,100.00
2022-09-11T22:50:10.144Z,100.00
2022-09-11T22:52:40.044Z,100.00
2022-09-11T22:55:10.764Z,100.00
2022-09-11T22:57:40.577Z,100.00
2022-09-11T23:00:14.426Z,100.00
2022-09-11T23:02:42.998Z,100.00
2022-09-11T23:05:28.992Z,100.00
2022-09-11T23:07:59.019Z,100.00
2022-09-11T23:10:28.718Z,100.00
2022-09-11T23:12:58.349Z,100.00
2022-09-11T23:15:26.882Z,100.00
2022-09-11T23:17:56.503Z,100.00
2022-09-11T23:20:24.925Z,100.00
2022-09-11T23:22:53.494Z,100.00
2022-09-11T23:25:25.179Z,100.00
2022-09-11T23:27:54.513Z,100.00
2022-09-11T23:30:22.982Z,100.00
2022-09-11T23:32:54.126Z,100.00
2022-09-11T23:35:22.808Z,100.00
2022-09-11T23:37:51.880Z,100.00
2022-09-11T23:40:20.335Z,100.00
2022-09-11T23:42:50.213Z,100.00
2022-09-11T23:45:19.530Z,100.00
2022-09-11T23:47:49.049Z,100.00
2022-09-11T23:50:17.756Z,100.00
2022-09-11T23:52:46.636Z,100.00
2022-09-11T23:55:15.074Z,100.00
2022-09-11T23:57:43.758Z,100.00
